sensor_id;sensor_type;location;lat;lon;timestamp;pressure;altitude;pressure_sealevel;temperature;humidity
16595;BME280;8410;52.532;13.336;2022-09-20T00:01:06;101189.13;;;12.75;86.75
16595;BME280;8410;52.532;13.336;2022-09-20T00:03:34;101186.50;;;12.71;86.89
16595;BME280;8410;52.532;13.336;2022-09-20T00:06:06;101191.78;;;12.83;85.89
16595;BME280;8410;52.532;13.336;2022-09-20T00:08:34;101195.13;;;12.73;84.95
16595;BME280;8410;52.532;13.336;2022-09-20T00:11:03;101190.06;;;12.85;86.13
16595;BME280;8410;52.532;13.336;2022-09-20T00:13:34;101189.41;;;12.27;86.68
16595;BME280;8410;52.532;13.336;2022-09-20T00:16:04;101192.22;;;12.44;88.95
16595;BME280;8410;52.532;13.336;2022-09-20T00:18:32;101192.97;;;12.35;87.84
16595;BME280;8410;52.532;13.336;2022-09-20T00:21:00;101195.44;;;12.29;89.76
16595;BME280;8410;52.532;13.336;2022-09-20T00:23:27;101188.22;;;12.02;88.55
16595;BME280;8410;52.532;13.336;2022-09-20T00:25:56;101195.09;;;12.03;90.54
16595;BME280;8410;52.532;13.336;2022-09-20T00:28:24;101196.28;;;12.25;88.87
16595;BME280;8410;52.532;13.336;2022-09-20T00:30:54;101195.09;;;12.01;89.08
16595;BME280;8410;52.532;13.336;2022-09-20T00:33:24;101186.09;;;12.37;88.29
16595;BME280;8410;52.532;13.336;2022-09-20T00:36:12;101193.25;;;12.60;87.26
16595;BME280;8410;52.532;13.336;2022-09-20T00:38:39;101198.03;;;12.27;88.18
16595;BME280;8410;52.532;13.336;2022-09-20T00:41:06;101193.69;;;12.25;88.07
16595;BME280;8410;52.532;13.336;2022-09-20T00:43:36;101193.03;;;12.43;86.41
16595;BME280;8410;52.532;13.336;2022-09-20T00:46:17;101189.72;;;12.51;87.69
16595;BME280;8410;52.532;13.336;2022-09-20T00:48:48;101190.22;;;12.23;88.14
16595;BME280;8410;52.532;13.336;2022-09-20T00:51:19;101195.19;;;12.07;88.07
16595;BME280;8410;52.532;13.336;2022-09-20T00:53:52;101195.06;;;12.00;86.81
16595;BME280;8410;52.532;13.336;2022-09-20T00:56:25;101193.03;;;12.43;87.63
16595;BME280;8410;52.532;13.336;2022-09-20T00:58:58;101196.31;;;12.28;87.43
16595;BME280;8410;52.532;13.336;2022-09-20T01:01:30;101197.72;;;12.04;87.74
16595;BME280;8410;52.532;13.336;2022-09-20T01:03:58;101196.84;;;12.04;87.22
16595;BME280;8410;52.532;13.336;2022-09-20T01:06:27;101200.72;;;12.35;87.06
16595;BME280;8410;52.532;13.336;2022-09-20T01:08:57;101203.16;;;12.26;87.45
16595;BME280;8410;52.532;13.336;2022-09-20T01:11:28;101203.38;;;12.43;86.59
16595;BME280;8410;52.532;13.336;2022-09-20T01:13:56;101200.88;;;12.49;86.29
16595;BME280;8410;52.532;13.336;2022-09-20T01:16:24;101205.22;;;12.51;85.58
16595;BME280;8410;52.532;13.336;2022-09-20T01:18:57;101204.19;;;12.40;87.02
16595;BME280;8410;52.532;13.336;2022-09-20T01:21:28;101196.53;;;12.46;87.01
16595;BME280;8410;52.532;13.336;2022-09-20T01:23:59;101195.88;;;12.63;85.03
16595;BME280;8410;52.532;13.336;2022-09-20T01:26:42;101196.66;;;12.57;84.54
16595;BME280;8410;52.532;13.336;2022-09-20T01:29:25;101202.66;;;12.54;86.24
16595;BME280;8410;52.532;13.336;2022-09-20T01:31:59;101198.94;;;12.31;86.62
16595;BME280;8410;52.532;13.336;2022-09-20T01:34:30;101199.81;;;12.33;87.52
16595;BME280;8410;52.532;13.336;2022-09-20T01:37:04;101199.97;;;12.45;87.18
16595;BME280;8410;52.532;13.336;2022-09-20T01:39:36;101199.72;;;12.27;87.24
16595;BME280;8410;52.532;13.336;2022-09-20T01:42:08;101203.34;;;12.38;85.44
16595;BME280;8410;52.532;13.336;2022-09-20T01:44:39;101205.13;;;12.45;85.35
16595;BME280;8410;52.532;13.336;2022-09-20T01:47:23;101200.06;;;12.51;86.39
16595;BME280;8410;52.532;13.336;2022-09-20T01:50:01;101199.84;;;12.36;85.28
16595;BME280;8410;52.532;13.336;2022-09-20T01:52:49;101204.31;;;12.49;86.08
16595;BME280;8410;52.532;13.336;2022-09-20T01:55:56;101212.03;;;12.46;85.12
16595;BME280;8410;52.532;13.336;2022-09-20T01:58:55;101220.75;;;12.54;86.04
16595;BME280;8410;52.532;13.336;2022-09-20T02:02:22;101216.50;;;12.60;86.61
16595;BME280;8410;52.532;13.336;2022-09-20T02:05:23;101218.97;;;12.50;85.11
16595;BME280;8410;52.532;13.336;2022-09-20T02:08:11;101211.22;;;12.50;85.75
16595;BME280;8410;52.532;13.336;2022-09-20T02:11:03;101210.22;;;12.39;85.55
16595;BME280;8410;52.532;13.336;2022-09-20T02:16:46;101214.56;;;12.42;86.14
16595;BME280;8410;52.532;13.336;2022-09-20T02:19:45;101219.00;;;12.53;86.12
16595;BME280;8410;52.532;13.336;2022-09-20T02:22:24;101220.72;;;12.51;85.93
16595;BME280;8410;52.532;13.336;2022-09-20T02:25:00;101227.56;;;12.49;86.07
16595;BME280;8410;52.532;13.336;2022-09-20T02:27:39;101222.28;;;12.40;87.40
16595;BME280;8410;52.532;13.336;2022-09-20T02:30:16;101220.69;;;12.48;86.75
16595;BME280;8410;52.532;13.336;2022-09-20T02:33:09;101223.09;;;12.36;86.37
16595;BME280;8410;52.532;13.336;2022-09-20T02:35:53;101229.06;;;11.74;89.64
16595;BME280;8410;52.532;13.336;2022-09-20T02:38:41;101225.63;;;11.75;90.50
16595;BME280;8410;52.532;13.336;2022-09-20T02:41:44;101232.72;;;11.35;91.57
16595;BME280;8410;52.532;13.336;2022-09-20T02:44:21;101227.06;;;11.56;93.31
16595;BME280;8410;52.532;13.336;2022-09-20T02:46:58;101225.22;;;12.02;90.09
16595;BME280;8410;52.532;13.336;2022-09-20T02:49:34;101232.56;;;11.78;88.88
16595;BME280;8410;52.532;13.336;2022-09-20T02:52:15;101228.09;;;12.22;90.20
16595;BME280;8410;52.532;13.336;2022-09-20T02:54:52;101227.78;;;12.02;88.47
16595;BME280;8410;52.532;13.336;2022-09-20T02:57:26;101227.47;;;11.82;90.38
16595;BME280;8410;52.532;13.336;2022-09-20T03:00:00;101234.03;;;12.17;87.92
16595;BME280;8410;52.532;13.336;2022-09-20T03:02:34;101230.25;;;11.93;90.29
16595;BME280;8410;52.532;13.336;2022-09-20T03:05:08;101225.69;;;11.77;90.14
16595;BME280;8410;52.532;13.336;2022-09-20T03:07:51;101226.28;;;12.18;91.10
16595;BME280;8410;52.532;13.336;2022-09-20T03:10:27;101236.44;;;12.04;89.31
16595;BME280;8410;52.532;13.336;2022-09-20T03:13:09;101241.88;;;11.69;91.77
16595;BME280;8410;52.532;13.336;2022-09-20T03:15:51;101246.78;;;12.07;90.53
16595;BME280;8410;52.532;13.336;2022-09-20T03:18:33;101249.38;;;12.07;90.56
16595;BME280;8410;52.532;13.336;2022-09-20T03:21:10;101253.06;;;12.25;89.35
16595;BME280;8410;52.532;13.336;2022-09-20T03:23:53;101245.88;;;12.05;89.00
16595;BME280;8410;52.532;13.336;2022-09-20T03:26:33;101240.88;;;12.14;90.89
16595;BME280;8410;52.532;13.336;2022-09-20T03:29:08;101249.69;;;12.30;89.30
16595;BME280;8410;52.532;13.336;2022-09-20T03:31:57;101258.44;;;11.82;89.39
16595;BME280;8410;52.532;13.336;2022-09-20T03:34:36;101261.53;;;12.14;89.10
16595;BME280;8410;52.532;13.336;2022-09-20T03:37:16;101253.22;;;12.37;88.84
16595;BME280;8410;52.532;13.336;2022-09-20T03:40:05;101261.47;;;12.11;88.94
16595;BME280;8410;52.532;13.336;2022-09-20T03:42:42;101261.03;;;11.84;92.22
16595;BME280;8410;52.532;13.336;2022-09-20T03:45:25;101262.84;;;11.88;92.53
16595;BME280;8410;52.532;13.336;2022-09-20T03:48:05;101253.63;;;12.05;90.86
16595;BME280;8410;52.532;13.336;2022-09-20T03:50:50;101261.63;;;12.24;90.34
16595;BME280;8410;52.532;13.336;2022-09-20T03:59:43;101259.22;;;11.77;91.60
16595;BME280;8410;52.532;13.336;2022-09-20T04:02:41;101263.56;;;11.79;91.71
16595;BME280;8410;52.532;13.336;2022-09-20T04:05:14;101257.41;;;12.27;90.67
16595;BME280;8410;52.532;13.336;2022-09-20T04:07:53;101261.44;;;12.08;90.26
16595;BME280;8410;52.532;13.336;2022-09-20T04:10:40;101262.00;;;11.89;92.96
16595;BME280;8410;52.532;13.336;2022-09-20T04:13:26;101274.38;;;12.11;90.47
16595;BME280;8410;52.532;13.336;2022-09-20T04:16:13;101267.44;;;12.70;89.51
16595;BME280;8410;52.532;13.336;2022-09-20T04:18:48;101272.16;;;13.08;86.99
16595;BME280;8410;52.532;13.336;2022-09-20T04:21:22;101269.50;;;13.01;85.85
16595;BME280;8410;52.532;13.336;2022-09-20T04:23:59;101268.81;;;13.16;86.25
16595;BME280;8410;52.532;13.336;2022-09-20T04:26:30;101278.28;;;13.16;85.58
16595;BME280;8410;52.532;13.336;2022-09-20T04:29:09;101277.25;;;13.00;87.37
16595;BME280;8410;52.532;13.336;2022-09-20T04:31:46;101270.91;;;12.75;86.86
16595;BME280;8410;52.532;13.336;2022-09-20T04:34:24;101271.19;;;12.96;86.91
16595;BME280;8410;52.532;13.336;2022-09-20T04:37:20;101277.63;;;12.61;88.13
16595;BME280;8410;52.532;13.336;2022-09-20T04:39:57;101277.00;;;12.80;87.44
16595;BME280;8410;52.532;13.336;2022-09-20T04:45:51;101274.50;;;12.86;86.37
16595;BME280;8410;52.532;13.336;2022-09-20T04:49:00;101281.06;;;12.60;87.26
16595;BME280;8410;52.532;13.336;2022-09-20T04:51:57;101280.94;;;12.50;88.84
16595;BME280;8410;52.532;13.336;2022-09-20T04:58:17;101275.41;;;12.23;91.16
16595;BME280;8410;52.532;13.336;2022-09-20T05:04:25;101284.50;;;11.99;89.82
16595;BME280;8410;52.532;13.336;2022-09-20T05:07:21;101289.25;;;12.28;91.95
16595;BME280;8410;52.532;13.336;2022-09-20T05:10:14;101286.66;;;12.28;90.69
16595;BME280;8410;52.532;13.336;2022-09-20T05:13:00;101293.91;;;12.55;89.90
16595;BME280;8410;52.532;13.336;2022-09-20T05:15:40;101300.69;;;12.47;90.04
16595;BME280;8410;52.532;13.336;2022-09-20T05:18:37;101296.59;;;12.63;89.59
16595;BME280;8410;52.532;13.336;2022-09-20T05:21:38;101308.41;;;12.45;89.82
16595;BME280;8410;52.532;13.336;2022-09-20T05:24:21;101315.06;;;12.28;88.05
16595;BME280;8410;52.532;13.336;2022-09-20T05:26:58;101318.69;;;12.41;87.51
16595;BME280;8410;52.532;13.336;2022-09-20T05:29:35;101315.38;;;12.49;90.17
16595;BME280;8410;52.532;13.336;2022-09-20T05:32:10;101316.53;;;12.73;88.42
16595;BME280;8410;52.532;13.336;2022-09-20T05:34:43;101322.50;;;12.69;87.13
16595;BME280;8410;52.532;13.336;2022-09-20T05:37:18;101324.25;;;12.09;88.64
16595;BME280;8410;52.532;13.336;2022-09-20T05:39:53;101325.75;;;12.52;89.02
16595;BME280;8410;52.532;13.336;2022-09-20T05:42:34;101331.66;;;11.87;91.20
16595;BME280;8410;52.532;13.336;2022-09-20T05:45:16;101328.78;;;12.27;90.64
16595;BME280;8410;52.532;13.336;2022-09-20T05:47:51;101333.59;;;12.02;91.92
16595;BME280;8410;52.532;13.336;2022-09-20T05:50:38;101337.59;;;12.38;89.70
16595;BME280;8410;52.532;13.336;2022-09-20T05:53:27;101335.75;;;12.31;89.85
16595;BME280;8410;52.532;13.336;2022-09-20T05:56:04;101334.53;;;12.67;88.64
16595;BME280;8410;52.532;13.336;2022-09-20T05:58:46;101345.50;;;13.16;88.22
16595;BME280;8410;52.532;13.336;2022-09-20T06:01:22;101344.44;;;13.01;86.69
16595;BME280;8410;52.532;13.336;2022-09-20T06:03:58;101348.31;;;12.66;87.82
16595;BME280;8410;52.532;13.336;2022-09-20T06:06:39;101347.03;;;13.01;87.56
16595;BME280;8410;52.532;13.336;2022-09-20T06:09:31;101365.00;;;12.30;91.02
16595;BME280;8410;52.532;13.336;2022-09-20T06:12:14;101357.34;;;12.98;88.04
16595;BME280;8410;52.532;13.336;2022-09-20T06:14:51;101362.59;;;12.42;87.93
16595;BME280;8410;52.532;13.336;2022-09-20T06:17:27;101365.44;;;12.61;89.09
16595;BME280;8410;52.532;13.336;2022-09-20T06:20:14;101364.47;;;13.18;87.46
16595;BME280;8410;52.532;13.336;2022-09-20T06:22:44;101372.53;;;12.74;87.58
16595;BME280;8410;52.532;13.336;2022-09-20T06:25:19;101368.09;;;12.67;87.88
16595;BME280;8410;52.532;13.336;2022-09-20T06:27:51;101377.47;;;12.02;90.72
16595;BME280;8410;52.532;13.336;2022-09-20T06:30:23;101370.16;;;12.89;89.34
16595;BME280;8410;52.532;13.336;2022-09-20T06:32:57;101370.75;;;12.70;88.10
16595;BME280;8410;52.532;13.336;2022-09-20T06:35:34;101376.09;;;12.85;87.42
16595;BME280;8410;52.532;13.336;2022-09-20T06:38:19;101375.13;;;12.75;88.22
16595;BME280;8410;52.532;13.336;2022-09-20T06:41:10;101378.00;;;12.36;89.47
16595;BME280;8410;52.532;13.336;2022-09-20T06:43:56;101374.81;;;12.52;89.25
16595;BME280;8410;52.532;13.336;2022-09-20T06:46:25;101381.25;;;12.23;89.91
16595;BME280;8410;52.532;13.336;2022-09-20T06:48:54;101379.69;;;12.32;89.25
16595;BME280;8410;52.532;13.336;2022-09-20T06:51:23;101386.34;;;12.20;91.08
16595;BME280;8410;52.532;13.336;2022-09-20T06:53:52;101391.03;;;12.44;88.39
16595;BME280;8410;52.532;13.336;2022-09-20T06:56:24;101382.56;;;12.52;90.79
16595;BME280;8410;52.532;13.336;2022-09-20T06:58:53;101382.81;;;12.71;89.19
16595;BME280;8410;52.532;13.336;2022-09-20T07:01:20;101382.53;;;13.16;86.26
16595;BME280;8410;52.532;13.336;2022-09-20T07:03:56;101398.72;;;13.01;85.45
16595;BME280;8410;52.532;13.336;2022-09-20T07:06:23;101396.81;;;12.88;86.94
16595;BME280;8410;52.532;13.336;2022-09-20T07:08:54;101398.09;;;13.19;86.18
16595;BME280;8410;52.532;13.336;2022-09-20T07:11:23;101403.53;;;13.41;83.93
16595;BME280;8410;52.532;13.336;2022-09-20T07:13:52;101403.00;;;12.96;85.65
16595;BME280;8410;52.532;13.336;2022-09-20T07:16:20;101406.59;;;13.11;85.12
16595;BME280;8410;52.532;13.336;2022-09-20T07:18:48;101408.25;;;12.43;87.19
16595;BME280;8410;52.532;13.336;2022-09-20T07:21:19;101407.31;;;12.40;88.14
16595;BME280;8410;52.532;13.336;2022-09-20T07:23:46;101400.81;;;12.66;88.49
16595;BME280;8410;52.532;13.336;2022-09-20T07:26:18;101413.38;;;12.99;87.30
16595;BME280;8410;52.532;13.336;2022-09-20T07:28:47;101408.91;;;12.91;87.35
16595;BME280;8410;52.532;13.336;2022-09-20T07:31:18;101410.44;;;12.76;86.94
16595;BME280;8410;52.532;13.336;2022-09-20T07:33:45;101410.63;;;12.89;87.36
16595;BME280;8410;52.532;13.336;2022-09-20T07:36:13;101419.28;;;12.92;86.82
16595;BME280;8410;52.532;13.336;2022-09-20T07:38:45;101412.16;;;12.76;86.86
16595;BME280;8410;52.532;13.336;2022-09-20T07:41:13;101414.53;;;12.59;88.48
16595;BME280;8410;52.532;13.336;2022-09-20T07:43:40;101421.25;;;12.51;88.78
16595;BME280;8410;52.532;13.336;2022-09-20T07:46:10;101422.16;;;12.51;88.83
16595;BME280;8410;52.532;13.336;2022-09-20T07:48:39;101422.34;;;12.67;89.95
16595;BME280;8410;52.532;13.336;2022-09-20T07:51:08;101422.44;;;12.70;89.24
16595;BME280;8410;52.532;13.336;2022-09-20T07:53:37;101425.00;;;13.32;87.66
16595;BME280;8410;52.532;13.336;2022-09-20T07:56:06;101428.03;;;13.03;87.98
16595;BME280;8410;52.532;13.336;2022-09-20T07:58:34;101431.22;;;12.84;87.71
16595;BME280;8410;52.532;13.336;2022-09-20T08:01:03;101439.03;;;12.87;89.13
16595;BME280;8410;52.532;13.336;2022-09-20T08:03:33;101442.22;;;13.30;86.45
16595;BME280;8410;52.532;13.336;2022-09-20T08:06:03;101440.81;;;12.93;87.24
16595;BME280;8410;52.532;13.336;2022-09-20T08:08:31;101442.44;;;12.83;89.10
16595;BME280;8410;52.532;13.336;2022-09-20T08:11:03;101442.22;;;13.30;87.46
16595;BME280;8410;52.532;13.336;2022-09-20T08:13:34;101438.50;;;13.10;88.33
16595;BME280;8410;52.532;13.336;2022-09-20T08:16:22;101443.97;;;13.31;88.30
16595;BME280;8410;52.532;13.336;2022-09-20T08:18:53;101438.16;;;13.51;87.11
16595;BME280;8410;52.532;13.336;2022-09-20T08:21:23;101440.34;;;13.98;84.61
16595;BME280;8410;52.532;13.336;2022-09-20T08:23:51;101440.75;;;13.52;85.41
16595;BME280;8410;52.532;13.336;2022-09-20T08:26:21;101447.44;;;13.36;88.29
16595;BME280;8410;52.532;13.336;2022-09-20T08:28:51;101452.56;;;13.29;88.01
16595;BME280;8410;52.532;13.336;2022-09-20T08:31:21;101452.03;;;13.59;88.46
16595;BME280;8410;52.532;13.336;2022-09-20T08:33:51;101449.44;;;13.56;89.04
16595;BME280;8410;52.532;13.336;2022-09-20T08:36:20;101457.19;;;13.56;89.34
16595;BME280;8410;52.532;13.336;2022-09-20T08:38:49;101452.78;;;13.49;88.58
16595;BME280;8410;52.532;13.336;2022-09-20T08:41:41;101456.31;;;13.57;87.54
16595;BME280;8410;52.532;13.336;2022-09-20T08:44:14;101455.13;;;13.29;89.94
16595;BME280;8410;52.532;13.336;2022-09-20T08:46:47;101462.78;;;13.24;90.37
16595;BME280;8410;52.532;13.336;2022-09-20T08:49:24;101458.47;;;13.24;90.06
16595;BME280;8410;52.532;13.336;2022-09-20T08:51:53;101463.13;;;13.49;89.03
16595;BME280;8410;52.532;13.336;2022-09-20T08:54:24;101456.19;;;14.30;87.03
16595;BME280;8410;52.532;13.336;2022-09-20T08:57:00;101455.63;;;14.60;84.36
16595;BME280;8410;52.532;13.336;2022-09-20T08:59:31;101462.13;;;14.15;85.30
16595;BME280;8410;52.532;13.336;2022-09-20T09:01:59;101466.53;;;14.25;85.29
16595;BME280;8410;52.532;13.336;2022-09-20T09:04:33;101458.06;;;14.46;84.72
16595;BME280;8410;52.532;13.336;2022-09-20T09:07:02;101450.59;;;14.85;83.66
16595;BME280;8410;52.532;13.336;2022-09-20T09:09:32;101464.75;;;14.20;84.71
16595;BME280;8410;52.532;13.336;2022-09-20T09:12:03;101457.22;;;14.49;84.64
16595;BME280;8410;52.532;13.336;2022-09-20T09:14:33;101452.28;;;14.80;83.54
16595;BME280;8410;52.532;13.336;2022-09-20T09:17:21;101465.84;;;14.48;84.88
16595;BME280;8410;52.532;13.336;2022-09-20T09:19:55;101457.91;;;14.28;87.07
16595;BME280;8410;52.532;13.336;2022-09-20T09:22:24;101461.84;;;14.84;83.21
16595;BME280;8410;52.532;13.336;2022-09-20T09:25:09;101460.72;;;14.54;83.75
16595;BME280;8410;52.532;13.336;2022-09-20T09:27:51;101469.28;;;14.44;85.45
16595;BME280;8410;52.532;13.336;2022-09-20T09:30:22;101459.41;;;15.17;82.17
16595;BME280;8410;52.532;13.336;2022-09-20T09:32:49;101460.13;;;14.87;83.93
16595;BME280;8410;52.532;13.336;2022-09-20T09:35:28;101461.94;;;15.04;81.65
16595;BME280;8410;52.532;13.336;2022-09-20T09:37:58;101464.47;;;14.96;82.61
16595;BME280;8410;52.532;13.336;2022-09-20T09:40:27;101473.00;;;14.73;83.77
16595;BME280;8410;52.532;13.336;2022-09-20T09:42:57;101471.16;;;14.60;84.00
16595;BME280;8410;52.532;13.336;2022-09-20T09:45:32;101466.19;;;14.91;84.45
16595;BME280;8410;52.532;13.336;2022-09-20T09:48:18;101468.06;;;15.16;80.69
16595;BME280;8410;52.532;13.336;2022-09-20T09:50:47;101476.50;;;14.85;83.97
16595;BME280;8410;52.532;13.336;2022-09-20T09:53:21;101459.75;;;16.19;78.65
16595;BME280;8410;52.532;13.336;2022-09-20T09:56:03;101455.38;;;16.73;76.76
16595;BME280;8410;52.532;13.336;2022-09-20T09:58:48;101451.09;;;16.47;76.94
16595;BME280;8410;52.532;13.336;2022-09-20T10:01:26;101461.19;;;15.26;81.31
16595;BME280;8410;52.532;13.336;2022-09-20T10:04:03;101448.47;;;15.91;77.88
16595;BME280;8410;52.532;13.336;2022-09-20T10:06:42;101439.81;;;16.30;76.18
16595;BME280;8410;52.532;13.336;2022-09-20T10:09:30;101445.03;;;16.58;77.29
16595;BME280;8410;52.532;13.336;2022-09-20T10:12:14;101447.63;;;16.30;77.41
16595;BME280;8410;52.532;13.336;2022-09-20T10:14:57;101457.78;;;15.41;81.22
16595;BME280;8410;52.532;13.336;2022-09-20T10:17:48;101455.31;;;15.69;78.91
16595;BME280;8410;52.532;13.336;2022-09-20T10:20:41;101451.97;;;16.28;78.25
16595;BME280;8410;52.532;13.336;2022-09-20T10:23:25;101464.94;;;16.09;78.45
16595;BME280;8410;52.532;13.336;2022-09-20T10:26:36;101461.41;;;15.72;80.04
16595;BME280;8410;52.532;13.336;2022-09-20T10:29:11;101457.16;;;16.45;77.47
16595;BME280;8410;52.532;13.336;2022-09-20T10:31:52;101456.09;;;15.48;77.86
16595;BME280;8410;52.532;13.336;2022-09-20T10:37:44;101459.31;;;14.99;81.23
16595;BME280;8410;52.532;13.336;2022-09-20T10:40:25;101458.88;;;16.12;79.64
16595;BME280;8410;52.532;13.336;2022-09-20T10:43:28;101464.88;;;15.96;77.04
16595;BME280;8410;52.532;13.336;2022-09-20T10:46:05;101476.69;;;15.15;79.96
16595;BME280;8410;52.532;13.336;2022-09-20T10:49:02;101481.94;;;15.21;79.84
16595;BME280;8410;52.532;13.336;2022-09-20T10:51:38;101475.03;;;15.28;80.71
16595;BME280;8410;52.532;13.336;2022-09-20T10:54:17;101466.53;;;15.58;79.60
16595;BME280;8410;52.532;13.336;2022-09-20T10:56:54;101478.31;;;14.98;80.78
16595;BME280;8410;52.532;13.336;2022-09-20T10:59:41;101478.34;;;15.04;81.11
16595;BME280;8410;52.532;13.336;2022-09-20T11:02:30;101479.59;;;15.86;76.88
16595;BME280;8410;52.532;13.336;2022-09-20T11:05:16;101487.22;;;15.46;79.38
16595;BME280;8410;52.532;13.336;2022-09-20T11:07:52;101500.19;;;15.44;80.12
16595;BME280;8410;52.532;13.336;2022-09-20T11:10:24;101512.47;;;15.79;79.27
16595;BME280;8410;52.532;13.336;2022-09-20T11:12:58;101535.66;;;14.31;79.66
16595;BME280;8410;52.532;13.336;2022-09-20T11:15:31;101553.25;;;13.22;86.20
16595;BME280;8410;52.532;13.336;2022-09-20T11:18:04;101539.75;;;12.84;91.85
16595;BME280;8410;52.532;13.336;2022-09-20T11:20:38;101541.47;;;13.40;91.71
16595;BME280;8410;52.532;13.336;2022-09-20T11:23:13;101536.03;;;13.87;90.74
16595;BME280;8410;52.532;13.336;2022-09-20T11:25:47;101529.31;;;14.06;87.09
16595;BME280;8410;52.532;13.336;2022-09-20T11:28:20;101522.78;;;14.42;86.65
16595;BME280;8410;52.532;13.336;2022-09-20T11:30:55;101520.38;;;14.57;84.71
16595;BME280;8410;52.532;13.336;2022-09-20T11:33:27;101513.78;;;14.06;84.47
16595;BME280;8410;52.532;13.336;2022-09-20T11:35:58;101499.72;;;14.66;82.49
16595;BME280;8410;52.532;13.336;2022-09-20T11:38:32;101500.72;;;14.84;80.15
16595;BME280;8410;52.532;13.336;2022-09-20T11:41:04;101509.34;;;14.86;81.00
16595;BME280;8410;52.532;13.336;2022-09-20T11:43:38;101506.75;;;14.83;81.92
16595;BME280;8410;52.532;13.336;2022-09-20T11:46:12;101510.31;;;14.97;81.66
16595;BME280;8410;52.532;13.336;2022-09-20T11:48:46;101514.66;;;15.04;82.55
16595;BME280;8410;52.532;13.336;2022-09-20T11:51:45;101519.88;;;15.06;82.84
16595;BME280;8410;52.532;13.336;2022-09-20T11:54:29;101525.00;;;15.01;82.06
16595;BME280;8410;52.532;13.336;2022-09-20T11:57:00;101523.34;;;15.12;82.69
16595;BME280;8410;52.532;13.336;2022-09-20T11:59:34;101520.88;;;15.31;82.63
16595;BME280;8410;52.532;13.336;2022-09-20T12:02:13;101523.53;;;15.40;83.29
16595;BME280;8410;52.532;13.336;2022-09-20T12:04:45;101517.50;;;15.47;84.17
16595;BME280;8410;52.532;13.336;2022-09-20T12:07:19;101520.13;;;15.55;84.10
16595;BME280;8410;52.532;13.336;2022-09-20T12:09:54;101514.19;;;15.79;84.19
16595;BME280;8410;52.532;13.336;2022-09-20T12:12:31;101506.41;;;15.76;85.04
16595;BME280;8410;52.532;13.336;2022-09-20T12:15:05;101509.06;;;15.94;84.89
16595;BME280;8410;52.532;13.336;2022-09-20T12:18:06;101516.88;;;16.09;85.63
16595;BME280;8410;52.532;13.336;2022-09-20T12:20:58;101513.03;;;15.18;89.82
16595;BME280;8410;52.532;13.336;2022-09-20T12:26:41;101528.53;;;15.09;89.64
16595;BME280;8410;52.532;13.336;2022-09-20T12:32:40;101531.09;;;15.03;88.39
16595;BME280;8410;52.532;13.336;2022-09-20T12:38:38;101523.31;;;15.03;86.12
16595;BME280;8410;52.532;13.336;2022-09-20T12:41:16;101525.81;;;14.89;88.15
16595;BME280;8410;52.532;13.336;2022-09-20T12:43:56;101524.13;;;14.99;87.21
16595;BME280;8410;52.532;13.336;2022-09-20T12:46:39;101524.16;;;15.00;85.82
16595;BME280;8410;52.532;13.336;2022-09-20T12:49:34;101543.59;;;14.51;89.34
16595;BME280;8410;52.532;13.336;2022-09-20T12:52:26;101551.56;;;13.87;91.66
16595;BME280;8410;52.532;13.336;2022-09-20T12:55:09;101561.06;;;13.24;86.51
16595;BME280;8410;52.532;13.336;2022-09-20T12:57:38;101562.75;;;13.22;85.17
16595;BME280;8410;52.532;13.336;2022-09-20T13:00:07;101581.19;;;12.90;85.07
16595;BME280;8410;52.532;13.336;2022-09-20T13:02:57;101579.06;;;12.65;85.32
16595;BME280;8410;52.532;13.336;2022-09-20T13:05:34;101576.81;;;13.39;84.85
16595;BME280;8410;52.532;13.336;2022-09-20T13:08:15;101579.13;;;12.69;83.76
16595;BME280;8410;52.532;13.336;2022-09-20T13:10:46;101593.28;;;12.91;84.52
16595;BME280;8410;52.532;13.336;2022-09-20T13:13:30;101586.41;;;12.92;82.97
16595;BME280;8410;52.532;13.336;2022-09-20T13:15:59;101575.28;;;13.54;81.66
16595;BME280;8410;52.532;13.336;2022-09-20T13:18:32;101583.91;;;13.53;81.04
16595;BME280;8410;52.532;13.336;2022-09-20T13:21:02;101587.63;;;13.73;80.81
16595;BME280;8410;52.532;13.336;2022-09-20T13:23:43;101587.31;;;14.20;80.57
16595;BME280;8410;52.532;13.336;2022-09-20T13:26:13;101576.41;;;14.49;79.00
16595;BME280;8410;52.532;13.336;2022-09-20T13:28:46;101586.22;;;14.79;78.28
16595;BME280;8410;52.532;13.336;2022-09-20T13:31:31;101585.44;;;14.91;78.18
16595;BME280;8410;52.532;13.336;2022-09-20T13:34:20;101588.16;;;14.18;80.79
16595;BME280;8410;52.532;13.336;2022-09-20T13:36:52;101588.34;;;14.34;82.17
16595;BME280;8410;52.532;13.336;2022-09-20T13:39:25;101599.22;;;14.84;80.63
16595;BME280;8410;52.532;13.336;2022-09-20T13:41:58;101592.22;;;14.76;81.09
16595;BME280;8410;52.532;13.336;2022-09-20T13:44:29;101591.69;;;14.24;83.77
16595;BME280;8410;52.532;13.336;2022-09-20T13:46:59;101596.38;;;14.59;81.80
16595;BME280;8410;52.532;13.336;2022-09-20T13:49:31;101600.16;;;14.11;81.68
16595;BME280;8410;52.532;13.336;2022-09-20T13:52:13;101593.94;;;13.94;86.06
16595;BME280;8410;52.532;13.336;2022-09-20T13:54:46;101591.06;;;14.48;83.79
16595;BME280;8410;52.532;13.336;2022-09-20T13:57:17;101586.47;;;14.21;82.78
16595;BME280;8410;52.532;13.336;2022-09-20T13:59:46;101584.00;;;15.27;79.93
16595;BME280;8410;52.532;13.336;2022-09-20T14:02:20;101598.41;;;14.91;78.56
16595;BME280;8410;52.532;13.336;2022-09-20T14:04:50;101598.22;;;14.72;80.04
16595;BME280;8410;52.532;13.336;2022-09-20T14:07:21;101595.81;;;14.91;79.81
16595;BME280;8410;52.532;13.336;2022-09-20T14:09:51;101585.72;;;15.31;78.27
16595;BME280;8410;52.532;13.336;2022-09-20T14:12:20;101595.75;;;14.82;80.00
16595;BME280;8410;52.532;13.336;2022-09-20T14:14:49;101580.47;;;15.23;79.92